createdAt,value
2023-04-15T00:01:41.404Z,97958.16
2023-04-15T00:04:09.438Z,97961.34
2023-04-15T00:06:38.038Z,97962.00
2023-04-15T00:09:05.975Z,97970.66
2023-04-15T00:11:32.818Z,97972.63
2023-04-15T00:14:00.322Z,97972.06
2023-04-15T00:16:27.134Z,97976.63
2023-04-15T00:18:55.955Z,97973.81
2023-04-15T00:21:22.666Z,97980.03
2023-04-15T00:23:50.306Z,97982.13
2023-04-15T00:26:17.979Z,97981.28
2023-04-15T00:28:47.290Z,97984.66
2023-04-15T00:31:14.936Z,97983.69
2023-04-15T00:33:41.755Z,97981.72
2023-04-15T00:36:08.501Z,97988.31
2023-04-15T00:38:38.669Z,97986.78
2023-04-15T00:41:05.472Z,97986.78
2023-04-15T00:43:32.233Z,97987.59
2023-04-15T00:46:01.028Z,97989.09
2023-04-15T00:48:28.547Z,97991.19
2023-04-15T00:50:55.304Z,97995.91
2023-04-15T00:53:22.891Z,97991.53
2023-04-15T00:55:49.996Z,97996.47
2023-04-15T00:58:16.993Z,97995.63
2023-04-15T01:00:44.060Z,97997.25
2023-04-15T01:03:11.096Z,97996.34
2023-04-15T01:05:38.839Z,97998.50
2023-04-15T01:08:07.951Z,98007.84
2023-04-15T01:10:35.261Z,98003.72
2023-04-15T01:13:03.313Z,98009.19
2023-04-15T01:15:30.537Z,98008.97
2023-04-15T01:18:02.598Z,98005.56
2023-04-15T01:20:34.023Z,98015.22
2023-04-15T01:23:01.307Z,98014.03
2023-04-15T01:25:34.928Z,98022.91
2023-04-15T01:28:01.856Z,98026.34
2023-04-15T01:30:28.728Z,98028.66
2023-04-15T01:32:57.439Z,98025.22
2023-04-15T01:35:24.377Z,98027.53
2023-04-15T01:37:51.826Z,98029.03
2023-04-15T01:40:18.706Z,98029.03
2023-04-15T01:42:45.445Z,98028.59
2023-04-15T01:45:14.098Z,98034.06
2023-04-15T01:47:41.099Z,98027.13
2023-04-15T01:50:10.654Z,98032.03
2023-04-15T01:52:37.554Z,98031.41
2023-04-15T01:55:04.744Z,98032.19
2023-04-15T01:57:31.711Z,98037.31
2023-04-15T01:59:58.515Z,98037.03
2023-04-15T02:02:25.450Z,98040.88
2023-04-15T02:04:57.062Z,98037.25
2023-04-15T02:07:25.479Z,98041.88
2023-04-15T02:09:52.366Z,98039.56
2023-04-15T02:12:21.075Z,98041.19
2023-04-15T02:14:48.455Z,98036.44
2023-04-15T02:17:15.822Z,98043.34
2023-04-15T02:19:43.505Z,98048.22
2023-04-15T02:22:10.238Z,98048.34
2023-04-15T02:24:37.428Z,98051.16
2023-04-15T02:27:04.255Z,98052.13
2023-04-15T02:29:32.369Z,98047.22
2023-04-15T02:32:01.210Z,98048.06
2023-04-15T02:34:28.153Z,98054.03
2023-04-15T02:36:57.639Z,98059.38
2023-04-15T02:39:24.789Z,98064.25
2023-04-15T02:41:51.552Z,98060.44
2023-04-15T02:44:21.217Z,98060.28
2023-04-15T02:46:50.024Z,98067.75
2023-04-15T02:49:16.913Z,98067.47
2023-04-15T02:51:43.849Z,98065.66
2023-04-15T02:54:10.599Z,98069.50
2023-04-15T02:56:37.449Z,98062.19
2023-04-15T02:59:05.405Z,98063.88
2023-04-15T03:01:32.197Z,98067.19
2023-04-15T03:04:00.144Z,98070.75
2023-04-15T03:06:27.045Z,98064.63
2023-04-15T03:08:53.928Z,98062.03
2023-04-15T03:11:22.117Z,98068.16
2023-04-15T03:13:49.696Z,98061.34
2023-04-15T03:16:36.848Z,98070.97
2023-04-15T03:19:04.369Z,98072.88
2023-04-15T03:21:33.923Z,98076.19
2023-04-15T03:24:00.879Z,98065.22
2023-04-15T03:26:32.343Z,98069.31
2023-04-15T03:29:09.951Z,98068.81
2023-04-15T03:31:37.605Z,98074.72
2023-04-15T03:34:05.424Z,98082.38
2023-04-15T03:36:32.851Z,98072.03
2023-04-15T03:39:02.162Z,98078.16
2023-04-15T03:41:29.531Z,98080.19
2023-04-15T03:43:56.714Z,98076.03
2023-04-15T03:46:23.510Z,98076.25
2023-04-15T03:48:50.281Z,98081.47
2023-04-15T03:51:17.027Z,98078.03
2023-04-15T03:53:45.384Z,98083.00
2023-04-15T03:56:12.114Z,98083.84
2023-04-15T03:58:39.329Z,98086.50
2023-04-15T04:01:06.162Z,98085.75
2023-04-15T04:03:33.612Z,98087.63
2023-04-15T04:06:02.325Z,98079.53
2023-04-15T04:08:29.036Z,98084.84
2023-04-15T04:10:55.943Z,98094.81
2023-04-15T04:13:22.642Z,98096.69
2023-04-15T04:15:49.610Z,98095.03
2023-04-15T04:18:16.335Z,98094.59
2023-04-15T04:20:43.216Z,98102.88
2023-04-15T04:23:10.054Z,98107.81
2023-04-15T04:25:41.355Z,98114.91
2023-04-15T04:28:08.225Z,98118.72
2023-04-15T04:30:36.444Z,98116.41
2023-04-15T04:33:03.417Z,98115.84
2023-04-15T04:35:31.376Z,98124.53
2023-04-15T04:37:58.152Z,98127.22
2023-04-15T04:40:24.936Z,98126.94
2023-04-15T04:42:51.726Z,98123.66
2023-04-15T04:45:18.592Z,98130.53
2023-04-15T04:47:45.609Z,98141.22
2023-04-15T04:50:12.576Z,98129.75
2023-04-15T04:52:41.055Z,98140.25
2023-04-15T04:55:08.137Z,98137.09
2023-04-15T04:57:34.972Z,98151.06
2023-04-15T05:00:05.967Z,98150.97
2023-04-15T05:02:34.985Z,98146.66
2023-04-15T05:05:02.957Z,98146.63
2023-04-15T05:07:29.724Z,98146.75
2023-04-15T05:09:56.954Z,98144.16
2023-04-15T05:12:23.663Z,98149.66
2023-04-15T05:14:50.482Z,98149.91
2023-04-15T05:17:17.407Z,98149.66
2023-04-15T05:19:44.164Z,98152.16
2023-04-15T05:22:11.099Z,98143.69
2023-04-15T05:24:37.862Z,98149.88
2023-04-15T05:27:08.557Z,98150.53
2023-04-15T05:29:35.283Z,98156.50
2023-04-15T05:32:02.134Z,98156.88
2023-04-15T05:34:32.545Z,98160.94
2023-04-15T05:36:59.363Z,98159.50
2023-04-15T05:39:26.933Z,98171.75
2023-04-15T05:42:19.034Z,98160.25
2023-04-15T05:44:46.997Z,98166.69
2023-04-15T05:47:13.883Z,98172.63
2023-04-15T05:49:40.989Z,98172.53
2023-04-15T05:52:09.404Z,98171.13
2023-04-15T05:54:36.416Z,98173.81
2023-04-15T05:57:03.376Z,98175.75
2023-04-15T05:59:30.190Z,98175.50
2023-04-15T06:01:57.160Z,98174.94
2023-04-15T06:04:24.506Z,98177.75
2023-04-15T06:06:51.420Z,98184.44
2023-04-15T06:09:18.231Z,98181.72
2023-04-15T06:11:45.970Z,98184.84
2023-04-15T06:14:12.747Z,98186.59
2023-04-15T06:16:39.646Z,98188.97
2023-04-15T06:19:06.543Z,98184.75
2023-04-15T06:21:33.586Z,98195.59
2023-04-15T06:24:00.288Z,98190.28
2023-04-15T06:26:27.397Z,98199.78
2023-04-15T06:28:54.295Z,98200.53
2023-04-15T06:31:21.409Z,98198.91
2023-04-15T06:33:48.390Z,98199.50
2023-04-15T06:36:15.430Z,98196.19
2023-04-15T06:38:42.364Z,98202.59
2023-04-15T06:41:12.954Z,98202.72
2023-04-15T06:44:05.202Z,98201.50
2023-04-15T06:46:32.562Z,98205.53
2023-04-15T06:48:59.381Z,98209.69
2023-04-15T06:51:26.819Z,98206.13
2023-04-15T06:53:53.738Z,98205.66
2023-04-15T06:56:21.504Z,98209.78
2023-04-15T06:58:48.277Z,98214.53
2023-04-15T07:01:15.058Z,98198.13
2023-04-15T07:03:41.952Z,98213.31
2023-04-15T07:06:08.973Z,98218.13
2023-04-15T07:08:35.700Z,98210.31
2023-04-15T07:11:04.524Z,98217.94
2023-04-15T07:13:32.698Z,98217.16
2023-04-15T07:15:59.474Z,98222.00
2023-04-15T07:18:26.312Z,98219.00
2023-04-15T07:20:53.145Z,98228.78
2023-04-15T07:23:19.879Z,98222.69
2023-04-15T07:25:47.995Z,98228.78
2023-04-15T07:28:14.704Z,98232.94
2023-04-15T07:30:41.697Z,98240.53
2023-04-15T07:33:08.682Z,98241.63
2023-04-15T07:35:36.406Z,98246.22
2023-04-15T07:38:03.241Z,98244.22
2023-04-15T07:40:30.174Z,98243.25
2023-04-15T07:42:58.420Z,98249.94
2023-04-15T07:45:33.143Z,98247.81
2023-04-15T07:48:04.035Z,98245.22
2023-04-15T07:50:30.842Z,98257.66
2023-04-15T07:52:58.524Z,98252.16
2023-04-15T07:55:26.210Z,98257.00
2023-04-15T07:57:55.457Z,98264.44
2023-04-15T08:00:22.276Z,98256.00
2023-04-15T08:02:49.713Z,98256.88
2023-04-15T08:05:16.752Z,98263.19
2023-04-15T08:07:43.889Z,98265.31
2023-04-15T08:10:10.867Z,98270.06
2023-04-15T08:12:37.862Z,98271.22
2023-04-15T08:15:05.102Z,98272.44
2023-04-15T08:17:31.898Z,98268.09
2023-04-15T08:19:59.934Z,98269.75
2023-04-15T08:22:27.448Z,98273.81
2023-04-15T08:24:54.143Z,98278.66
2023-04-15T08:27:21.083Z,98278.34
2023-04-15T08:29:47.805Z,98277.47
2023-04-15T08:32:14.656Z,98277.38
2023-04-15T08:34:41.377Z,98284.44
2023-04-15T08:37:08.178Z,98284.25
2023-04-15T08:39:34.994Z,98286.38
2023-04-15T08:42:03.163Z,98293.53
2023-04-15T08:44:33.510Z,98292.94
2023-04-15T08:47:07.773Z,98296.81
2023-04-15T08:52:31.911Z,98297.00
2023-04-15T08:54:59.989Z,98304.47
2023-04-15T08:57:28.895Z,98303.38
2023-04-15T08:59:58.953Z,98299.31
2023-04-15T09:02:26.945Z,98305.75
2023-04-15T09:04:55.189Z,98299.91
2023-04-15T09:07:22.040Z,98303.78
2023-04-15T09:09:48.989Z,98312.31
2023-04-15T09:12:17.106Z,98310.97
2023-04-15T09:14:46.344Z,98306.31
2023-04-15T09:17:13.149Z,98310.56
2023-04-15T09:19:41.905Z,98314.34
2023-04-15T09:22:09.572Z,98319.25
2023-04-15T09:24:40.951Z,98319.25
2023-04-15T09:27:08.501Z,98327.59
2023-04-15T09:29:35.325Z,98324.75
2023-04-15T09:32:17.027Z,98324.47
2023-04-15T09:34:43.905Z,98323.78
2023-04-15T09:37:10.816Z,98338.31
2023-04-15T09:39:52.876Z,98333.25
2023-04-15T09:42:20.050Z,98333.25
2023-04-15T09:44:47.341Z,98335.81
2023-04-15T09:47:33.019Z,98338.44
2023-04-15T09:50:01.662Z,98348.13
2023-04-15T09:52:29.347Z,98343.28
2023-04-15T09:55:00.287Z,98340.34
2023-04-15T09:57:38.006Z,98343.09
2023-04-15T10:00:06.640Z,98345.38
2023-04-15T10:02:33.782Z,98347.59
2023-04-15T10:05:01.856Z,98344.97
2023-04-15T10:07:29.558Z,98350.66
2023-04-15T10:09:59.003Z,98347.38
2023-04-15T10:12:27.288Z,98357.31
2023-04-15T10:15:04.040Z,98357.63
2023-04-15T10:17:33.469Z,98355.47
2023-04-15T10:20:02.200Z,98357.72
2023-04-15T10:22:30.184Z,98356.00
2023-04-15T10:24:57.206Z,98358.56
2023-04-15T10:27:24.364Z,98369.03
2023-04-15T10:29:55.922Z,98368.94
2023-04-15T10:32:24.473Z,98370.69
2023-04-15T10:34:54.320Z,98378.75
2023-04-15T10:37:33.472Z,98376.13
2023-04-15T10:40:00.201Z,98375.94
2023-04-15T10:42:34.845Z,98377.69
2023-04-15T10:45:01.689Z,98377.94
2023-04-15T10:47:28.510Z,98373.78
2023-04-15T10:50:01.581Z,98376.31
2023-04-15T10:52:29.623Z,98373.00
2023-04-15T10:55:27.093Z,98380.13
2023-04-15T10:57:58.219Z,98381.72
2023-04-15T11:00:27.979Z,98379.09
2023-04-15T11:03:00.284Z,98379.31
2023-04-15T11:05:39.972Z,98390.03
2023-04-15T11:08:07.034Z,98394.59
2023-04-15T11:10:33.738Z,98390.91
2023-04-15T11:13:04.892Z,98389.06
2023-04-15T11:15:42.895Z,98394.78
2023-04-15T11:18:12.648Z,98395.66
2023-04-15T11:20:41.325Z,98396.78
2023-04-15T11:23:15.205Z,98397.78
2023-04-15T11:25:43.606Z,98400.66
2023-04-15T11:28:12.227Z,98395.53
2023-04-15T11:30:40.301Z,98401.34
2023-04-15T11:33:09.020Z,98402.94
2023-04-15T11:35:36.554Z,98402.84
2023-04-15T11:38:11.116Z,98396.25
2023-04-15T11:40:38.932Z,98398.91
2023-04-15T11:43:22.924Z,98396.16
2023-04-15T11:45:59.107Z,98393.69
2023-04-15T11:48:28.188Z,98406.03
2023-04-15T11:51:02.073Z,98406.53
2023-04-15T11:53:49.982Z,98411.00
2023-04-15T11:56:19.456Z,98406.94
2023-04-15T11:58:47.027Z,98414.78
2023-04-15T12:01:14.350Z,98408.78
2023-04-15T12:03:44.099Z,98410.06
2023-04-15T12:06:17.115Z,98409.16
2023-04-15T12:09:06.822Z,98409.91
2023-04-15T12:11:44.622Z,98410.88
2023-04-15T12:14:25.486Z,98411.63
2023-04-15T12:17:05.100Z,98417.19
2023-04-15T12:19:39.910Z,98417.78
2023-04-15T12:22:17.915Z,98420.09
2023-04-15T12:24:46.332Z,98432.03
2023-04-15T12:27:14.916Z,98431.50
2023-04-15T12:29:43.199Z,98435.13
2023-04-15T12:32:15.492Z,98430.34
2023-04-15T12:34:51.154Z,98436.53
2023-04-15T12:37:21.949Z,98436.25
2023-04-15T12:39:50.260Z,98435.94
2023-04-15T12:42:18.706Z,98439.84
2023-04-15T12:44:49.381Z,98450.75
2023-04-15T12:47:16.660Z,98448.16
2023-04-15T12:49:43.413Z,98448.44
2023-04-15T12:52:10.425Z,98447.09
2023-04-15T12:54:39.755Z,98455.00
2023-04-15T12:57:07.679Z,98456.91
2023-04-15T12:59:35.707Z,98452.22
2023-04-15T13:02:02.695Z,98461.91
2023-04-15T13:04:31.524Z,98460.13
2023-04-15T13:06:58.444Z,98456.03
2023-04-15T13:09:25.415Z,98464.91
2023-04-15T13:11:53.040Z,98475.38
2023-04-15T13:14:20.403Z,98466.44
2023-04-15T13:16:47.117Z,98464.13
2023-04-15T13:19:39.146Z,98475.66
2023-04-15T13:22:07.639Z,98472.75
2023-04-15T13:24:38.936Z,98474.78
2023-04-15T13:27:06.410Z,98476.50
2023-04-15T13:33:17.977Z,98475.34
2023-04-15T13:35:47.936Z,98471.91
2023-04-15T13:38:15.993Z,98474.81
2023-04-15T13:41:07.876Z,98472.03
2023-04-15T13:43:34.786Z,98477.94
2023-04-15T13:46:01.697Z,98476.00
2023-04-15T13:48:29.450Z,98473.88
2023-04-15T13:50:56.303Z,98477.28
2023-04-15T13:53:33.874Z,98478.97
2023-04-15T13:56:09.073Z,98483.28
2023-04-15T13:58:41.386Z,98482.38
2023-04-15T14:01:08.385Z,98478.69
2023-04-15T14:03:36.177Z,98480.56
2023-04-15T14:06:03.641Z,98486.06
2023-04-15T14:08:31.402Z,98493.16
2023-04-15T14:10:58.513Z,98491.97
2023-04-15T14:13:25.373Z,98494.47
2023-04-15T14:15:52.492Z,98503.25
2023-04-15T14:18:19.433Z,98499.09
2023-04-15T14:20:46.719Z,98498.16
2023-04-15T14:23:13.802Z,98507.38
2023-04-15T14:25:41.579Z,98503.22
2023-04-15T14:28:08.456Z,98515.41
2023-04-15T14:30:35.680Z,98514.81
2023-04-15T14:35:55.261Z,98520.56
2023-04-15T14:38:22.128Z,98517.78
2023-04-15T14:40:49.620Z,98525.16
2023-04-15T14:43:17.308Z,98530.91
2023-04-15T14:45:45.427Z,98532.25
2023-04-15T14:48:13.583Z,98534.09
2023-04-15T14:50:40.587Z,98549.38
2023-04-15T14:53:07.708Z,98553.34
2023-04-15T14:55:34.957Z,98550.47
2023-04-15T14:58:01.847Z,98558.16
2023-04-15T15:00:28.707Z,98555.63
2023-04-15T15:02:55.683Z,98559.69
2023-04-15T15:05:22.874Z,98558.47
2023-04-15T15:07:50.247Z,98567.19
2023-04-15T15:10:17.355Z,98563.16
2023-04-15T15:15:57.973Z,98574.84
2023-04-15T15:18:25.912Z,98574.56
2023-04-15T15:20:52.986Z,98583.69
2023-04-15T15:23:19.739Z,98579.69
2023-04-15T15:25:46.743Z,98577.84
2023-04-15T15:28:13.873Z,98577.44
2023-04-15T15:30:40.679Z,98584.84
2023-04-15T15:33:07.611Z,98577.63
2023-04-15T15:35:35.075Z,98589.84
2023-04-15T15:38:02.073Z,98583.22
2023-04-15T15:40:28.875Z,98591.25
2023-04-15T15:42:55.906Z,98594.47
2023-04-15T15:45:22.828Z,98596.44
2023-04-15T15:47:54.101Z,98599.53
2023-04-15T15:50:21.533Z,98596.72
2023-04-15T15:52:48.685Z,98599.53
2023-04-15T15:55:16.465Z,98607.09
2023-04-15T15:57:43.267Z,98609.13
2023-04-15T16:00:12.416Z,98610.19
2023-04-15T16:05:10.936Z,98619.25
2023-04-15T16:07:37.772Z,98621.69
2023-04-15T16:10:05.206Z,98615.31
2023-04-15T16:12:33.847Z,98613.84
2023-04-15T16:15:01.706Z,98633.53
2023-04-15T16:17:28.713Z,98628.88
2023-04-15T16:19:59.424Z,98622.69
2023-04-15T16:22:27.852Z,98627.72
2023-04-15T16:24:55.635Z,98636.53
2023-04-15T16:27:22.566Z,98633.53
2023-04-15T16:29:49.579Z,98635.09
2023-04-15T16:32:16.982Z,98630.94
2023-04-15T16:34:43.748Z,98638.19
2023-04-15T16:37:11.687Z,98639.75
2023-04-15T16:39:38.832Z,98641.78
2023-04-15T16:42:06.172Z,98651.09
2023-04-15T16:44:34.333Z,98658.16
2023-04-15T16:47:01.285Z,98661.56
2023-04-15T16:49:28.284Z,98656.13
2023-04-15T16:51:55.602Z,98664.25
2023-04-15T16:54:22.454Z,98664.19
2023-04-15T16:56:49.651Z,98673.56
2023-04-15T16:59:16.742Z,98671.16
2023-04-15T17:01:43.771Z,98672.22
2023-04-15T17:04:11.119Z,98681.94
2023-04-15T17:06:39.615Z,98681.81
2023-04-15T17:09:06.595Z,98681.25
2023-04-15T17:11:35.123Z,98682.00
2023-04-15T17:14:05.058Z,98685.50
2023-04-15T17:16:33.911Z,98691.50
2023-04-15T17:19:01.242Z,98691.09
2023-04-15T17:21:29.896Z,98685.59
2023-04-15T17:23:57.084Z,98693.06
2023-04-15T17:26:24.591Z,98693.81
2023-04-15T17:28:51.487Z,98704.09
2023-04-15T17:31:18.625Z,98701.28
2023-04-15T17:34:00.518Z,98706.72
2023-04-15T17:36:34.716Z,98710.66
2023-04-15T17:39:01.670Z,98711.44
2023-04-15T17:41:29.102Z,98720.72
2023-04-15T17:43:57.144Z,98722.00
2023-04-15T17:46:24.444Z,98725.31
2023-04-15T17:48:52.015Z,98726.31
2023-04-15T17:51:19.094Z,98735.69
2023-04-15T17:53:46.815Z,98738.59
2023-04-15T17:56:14.325Z,98747.28
2023-04-15T17:58:44.814Z,98750.13
2023-04-15T18:01:12.241Z,98759.69
2023-04-15T18:03:40.537Z,98755.44
2023-04-15T18:06:08.441Z,98755.94
2023-04-15T18:08:37.696Z,98765.38
2023-04-15T18:11:04.950Z,98771.03
2023-04-15T18:13:37.284Z,98773.94
2023-04-15T18:16:05.803Z,98782.28
2023-04-15T18:18:33.767Z,98784.03
2023-04-15T18:21:01.342Z,98782.97
2023-04-15T18:23:28.585Z,98782.31
2023-04-15T18:25:55.967Z,98784.88
2023-04-15T18:28:23.090Z,98789.59
2023-04-15T18:30:50.867Z,98789.38
2023-04-15T18:33:18.375Z,98799.09
2023-04-15T18:35:45.370Z,98807.59
2023-04-15T18:38:13.503Z,98804.75
2023-04-15T18:40:41.871Z,98807.41
2023-04-15T18:43:09.210Z,98809.78
2023-04-15T18:45:40.832Z,98832.81
2023-04-15T18:48:08.916Z,98820.63
2023-04-15T18:50:35.812Z,98827.69
2023-04-15T18:53:03.403Z,98828.25
2023-04-15T18:55:33.185Z,98835.84
2023-04-15T18:58:06.352Z,98834.66
2023-04-15T19:00:36.979Z,98834.75
2023-04-15T19:03:04.935Z,98841.22
2023-04-15T19:05:34.078Z,98843.38
2023-04-15T19:08:02.231Z,98845.41
2023-04-15T19:10:30.016Z,98845.09
2023-04-15T19:12:59.266Z,98851.63
2023-04-15T19:15:29.751Z,98853.47
2023-04-15T19:17:58.705Z,98850.34
2023-04-15T19:20:52.106Z,98848.50
2023-04-15T19:23:21.610Z,98848.56
2023-04-15T19:25:50.197Z,98855.41
2023-04-15T19:28:18.368Z,98857.78
2023-04-15T19:30:46.865Z,98868.78
2023-04-15T19:33:16.808Z,98863.34
2023-04-15T19:35:45.053Z,98868.03
2023-04-15T19:38:12.736Z,98859.97
2023-04-15T19:43:37.060Z,98870.88
2023-04-15T19:46:04.673Z,98875.69
2023-04-15T19:48:31.564Z,98870.13
2023-04-15T19:51:00.648Z,98882.38
2023-04-15T19:53:30.199Z,98875.94
2023-04-15T19:55:59.429Z,98878.63
2023-04-15T19:58:26.908Z,98880.97
2023-04-15T20:00:54.794Z,98890.91
2023-04-15T20:03:22.564Z,98889.59
2023-04-15T20:05:51.205Z,98889.06
2023-04-15T20:08:19.280Z,98893.03
2023-04-15T20:10:47.146Z,98897.00
2023-04-15T20:13:14.820Z,98898.34
2023-04-15T20:15:44.517Z,98903.88
2023-04-15T20:18:16.609Z,98909.81
2023-04-15T20:20:50.957Z,98911.41
2023-04-15T20:23:49.835Z,98914.81
2023-04-15T20:26:20.890Z,98919.03
2023-04-15T20:28:49.764Z,98922.19
2023-04-15T20:31:17.192Z,98922.19
2023-04-15T20:33:48.733Z,98924.50
2023-04-15T20:36:18.342Z,98924.78
2023-04-15T20:38:45.741Z,98927.63
2023-04-15T20:41:13.526Z,98934.19
2023-04-15T20:43:43.989Z,98930.25
2023-04-15T20:46:20.402Z,98937.06
2023-04-15T20:48:48.777Z,98937.31
2023-04-15T20:51:15.859Z,98935.25
2023-04-15T20:53:42.713Z,98940.97
2023-04-15T20:56:09.675Z,98945.66
2023-04-15T20:58:36.475Z,98942.53
2023-04-15T21:01:05.110Z,98948.78
2023-04-15T21:03:32.279Z,98946.69
2023-04-15T21:06:02.346Z,98953.47
2023-04-15T21:08:30.651Z,98954.53
2023-04-15T21:10:58.307Z,98963.88
2023-04-15T21:13:26.175Z,98957.91
2023-04-15T21:15:54.556Z,98966.75
2023-04-15T21:18:23.441Z,98965.22
2023-04-15T21:21:00.668Z,98968.84
2023-04-15T21:23:33.293Z,98962.84
2023-04-15T21:26:00.991Z,98977.69
2023-04-15T21:28:28.649Z,98974.28
2023-04-15T21:30:56.686Z,98977.69
2023-04-15T21:33:24.137Z,98976.34
2023-04-15T21:35:51.594Z,98974.81
2023-04-15T21:38:18.451Z,98972.72
2023-04-15T21:40:45.341Z,98976.91
2023-04-15T21:43:13.508Z,98980.78
2023-04-15T21:45:40.505Z,98984.69
2023-04-15T21:48:08.521Z,98987.31
2023-04-15T21:50:37.174Z,98985.19
2023-04-15T21:53:05.128Z,98995.63
2023-04-15T21:55:32.080Z,98991.19
2023-04-15T21:57:59.012Z,98995.88
2023-04-15T22:00:26.468Z,98991.97
2023-04-15T22:02:53.525Z,98990.41
2023-04-15T22:05:20.504Z,99000.56
2023-04-15T22:07:47.341Z,99002.13
2023-04-15T22:10:14.188Z,99005.25
2023-04-15T22:12:41.488Z,99006.56
2023-04-15T22:15:08.750Z,99005.78
2023-04-15T22:17:35.615Z,99014.91
2023-04-15T22:20:04.099Z,99014.91
2023-04-15T22:22:44.173Z,99009.44
2023-04-15T22:25:12.348Z,99019.31
2023-04-15T22:27:39.489Z,99017.78
2023-04-15T22:30:06.996Z,99014.66
2023-04-15T22:32:34.500Z,99020.66
2023-04-15T22:35:01.727Z,99026.91
2023-04-15T22:37:28.587Z,99030.81
2023-04-15T22:39:55.322Z,99035.50
2023-04-15T22:42:23.154Z,99035.75
2023-04-15T22:44:51.654Z,99033.16
2023-04-15T22:47:19.466Z,99040.69
2023-04-15T22:49:46.934Z,99046.19
2023-04-15T22:52:23.299Z,99047.47
2023-04-15T22:54:56.615Z,99046.19
2023-04-15T23:00:39.358Z,99057.13
2023-04-15T23:03:06.405Z,99062.06
2023-04-15T23:05:34.345Z,99055.03
2023-04-15T23:08:01.239Z,99054.50
2023-04-15T23:10:31.669Z,99061.00
2023-04-15T23:12:58.544Z,99058.34
2023-04-15T23:15:25.703Z,99055.44
2023-04-15T23:17:54.077Z,99057.72
2023-04-15T23:20:21.551Z,99070.50
2023-04-15T23:22:48.298Z,99057.19
2023-04-15T23:25:16.058Z,99061.59
2023-04-15T23:27:42.775Z,99068.91
2023-04-15T23:30:09.665Z,99063.94
2023-04-15T23:32:36.467Z,99059.25
2023-04-15T23:35:03.576Z,99058.44
2023-04-15T23:37:30.979Z,99065.19
2023-04-15T23:39:57.783Z,99064.91
2023-04-15T23:42:24.551Z,99074.03
2023-04-15T23:44:51.636Z,99080.81
2023-04-15T23:47:18.587Z,99078.72
2023-04-15T23:49:46.164Z,99076.63
2023-04-15T23:52:12.954Z,99078.69
2023-04-15T23:54:40.514Z,99076.88
2023-04-15T23:57:07.368Z,99079.53
2023-04-15T23:59:34.566Z,99080.84
